Airfield :
LOGIN :

Register | Disclaimer

   EN    FR    IT 

 










Legend :    VFR   Marginal VFR   IFR   Intensive IFR   Very Intensive IFR
Visi :
Ceiling :
>= 8 km
>= 3000ft
5 to 8 km
1000 to 3000 ft
1500m to 5 km
500 to 1000 ft
800 to 1500m
200 to 500 ft
< 800m
< 200 ft
Symbols :   Thunderstorms  Fog  Heavy snow  Heavy precipitations  Wind > 20 kt
SIGMETs :     Misc.  Thunderstorms  Icing  Turbulence  Mountain Waves  Volcanic Ashes






- Airport Elevation : 46 ft
- IATA code : GPA


LGRX - Araxos

CURRENT METAR :
  • 201450Z 03004KT 6000 RA FEW018TCU SCT025 OVC070 17/17 Q1015

EXPIRED METARs :
  • 201420Z 00000KT 9000 -RA FEW018TCU SCT035 BKN070 17/17 Q1015
  • 201350Z 02004KT 9000 -RA FEW018TCU SCT035 BKN070 17/17 Q1016
  • 201320Z 00000KT 9999 -RA FEW018TCU SCT035 BKN070 18/17 Q1015
  • 201250Z VRB03KT 9999 RA FEW018TCU SCT035 BKN070 20/15 Q1015
  • 201220Z 17008KT 9999 FEW018TCU SCT035 BKN070 21/15 Q1015

TAF TAF LGRX
Valid from the 20 at 15:00 until the 21 at 00:00 UTC


201400Z 2015/2024 21012KT 9999 BKN020 BKN080
PROB40
TEMPO 2015/2024 5000 RA
PROB40
TEMPO 2015/2024 3000 TSRA FEW016CB BKN020 OVC080



MET'MAP, your aeronautical weather chart ! - Copyright ORBIFLY December 2007 - Disclaimer

ORBIFLY MET'MAP TEAM :

Programming & Development : Alexandra Zaïnal
Concept & Development : Baudouin d'Aumeries
Co-Development & Prog : Marc-Olivier Méhu
Technical & hardware support : Manuel Goepfert

Contact : metmap@orbifly.com




SOURCES & CREDITS :

   NOAA